createdAt,value
2018-05-31T00:00:06.516Z,40
2018-05-31T00:00:56.231Z,40
2018-05-31T00:01:46.351Z,39.9
2018-05-31T00:02:36.131Z,39.9
2018-05-31T00:03:26.482Z,39.9
2018-05-31T00:04:16.238Z,39.9
2018-05-31T00:05:06.939Z,39.9
2018-05-31T00:05:57.042Z,39.9
2018-05-31T00:06:46.894Z,39.9
2018-05-31T00:07:36.498Z,39.9
2018-05-31T00:08:26.612Z,39.9
2018-05-31T00:09:16.938Z,39.9
2018-05-31T00:10:07.877Z,39.9
2018-05-31T00:10:56.758Z,39.9
2018-05-31T00:11:47.129Z,39.9
2018-05-31T00:12:37.205Z,39.8
2018-05-31T00:13:29.054Z,39.8
2018-05-31T00:14:17.342Z,39.8
2018-05-31T00:15:07.650Z,39.8
2018-05-31T00:15:57.146Z,39.8
2018-05-31T00:16:50.244Z,39.8
2018-05-31T00:17:36.694Z,39.8
2018-05-31T00:18:27.614Z,39.8
2018-05-31T00:19:17.396Z,39.8
2018-05-31T00:20:09.690Z,39.8
2018-05-31T00:20:58.130Z,39.8
2018-05-31T00:21:48.206Z,39.8
2018-05-31T00:22:37.958Z,39.8
2018-05-31T00:23:28.704Z,39.8
2018-05-31T00:24:17.521Z,39.7
2018-05-31T00:25:08.542Z,39.8
2018-05-31T00:25:58.505Z,39.7
2018-05-31T00:26:47.991Z,39.7
2018-05-31T00:27:38.314Z,39.7
2018-05-31T00:28:28.679Z,39.7
2018-05-31T00:29:17.933Z,39.7
2018-05-31T00:30:08.588Z,39.7
2018-05-31T00:30:58.575Z,39.7
2018-05-31T00:31:48.643Z,39.6
2018-05-31T00:32:39.008Z,39.6
2018-05-31T00:33:29.061Z,39.6
2018-05-31T00:34:18.886Z,39.6
2018-05-31T00:35:08.609Z,39.6
2018-05-31T00:35:59.231Z,39.6
2018-05-31T00:36:49.002Z,39.6
2018-05-31T00:37:39.040Z,39.6
2018-05-31T00:38:28.872Z,39.6
2018-05-31T00:39:19.718Z,39.6
2018-05-31T00:40:09.255Z,39.6
2018-05-31T00:40:59.646Z,39.6
2018-05-31T00:41:48.833Z,39.6
2018-05-31T00:42:41.132Z,39.6
2018-05-31T00:43:29.311Z,39.5
2018-05-31T00:44:19.897Z,39.5
2018-05-31T00:45:09.664Z,39.5
2018-05-31T00:46:01.989Z,39.5
2018-05-31T00:46:49.788Z,39.5
2018-05-31T00:47:38.715Z,39.5
2018-05-31T00:48:29.972Z,39.5
2018-05-31T00:49:23.566Z,39.4
2018-05-31T00:50:09.739Z,39.4
2018-05-31T00:51:00.077Z,39.4
2018-05-31T00:51:49.560Z,39.4
2018-05-31T00:52:42.208Z,39.4
2018-05-31T00:53:29.988Z,39.4
2018-05-31T00:54:20.731Z,39.4
2018-05-31T00:55:10.150Z,39.4
2018-05-31T00:55:59.598Z,39.4
2018-05-31T00:56:50.556Z,39.4
2018-05-31T00:57:40.635Z,39.4
2018-05-31T00:58:30.375Z,39.4
2018-05-31T00:59:20.142Z,39.4
2018-05-31T01:00:10.502Z,39.3
2018-05-31T01:01:00.569Z,39.3
2018-05-31T01:01:50.933Z,39.3
2018-05-31T01:02:40.694Z,39.3
2018-05-31T01:03:31.093Z,39.3
2018-05-31T01:04:20.564Z,39.3
2018-05-31T01:05:11.471Z,39.3
2018-05-31T01:06:00.973Z,39.3
2018-05-31T01:06:51.602Z,39.3
2018-05-31T01:07:41.676Z,39.3
2018-05-31T01:08:31.201Z,39.3
2018-05-31T01:09:21.504Z,39.3
2018-05-31T01:10:11.276Z,39.3
2018-05-31T01:11:01.384Z,39.3
2018-05-31T01:11:53.138Z,39.3
2018-05-31T01:12:41.465Z,39.2
2018-05-31T01:13:31.242Z,39.2
2018-05-31T01:14:22.154Z,39.2
2018-05-31T01:15:13.850Z,39.2
2018-05-31T01:16:01.445Z,39.2
2018-05-31T01:16:52.359Z,39.2
2018-05-31T01:17:41.816Z,39.2
2018-05-31T01:18:35.150Z,39.2
2018-05-31T01:19:21.474Z,39.1
2018-05-31T01:20:11.748Z,39.1
2018-05-31T01:21:01.548Z,39.1
2018-05-31T01:21:54.877Z,39.1
2018-05-31T01:22:41.643Z,39.1
2018-05-31T01:23:32.891Z,39.1
2018-05-31T01:24:22.610Z,39.1
2018-05-31T01:25:14.257Z,39.1
2018-05-31T01:26:03.315Z,39.1
2018-05-31T01:26:52.874Z,39.1
2018-05-31T01:27:42.912Z,39.1
2018-05-31T01:28:32.399Z,39.1
2018-05-31T01:29:23.043Z,39.1
2018-05-31T01:30:13.114Z,39.1
2018-05-31T01:31:02.832Z,39
2018-05-31T01:31:53.479Z,39
2018-05-31T01:32:43.554Z,39
2018-05-31T01:33:33.063Z,39
2018-05-31T01:34:22.849Z,39
2018-05-31T01:35:13.829Z,39
2018-05-31T01:36:03.532Z,39
2018-05-31T01:36:53.584Z,39
2018-05-31T01:37:44.410Z,39
2018-05-31T01:38:33.424Z,39
2018-05-31T01:39:24.097Z,38.9
2018-05-31T01:40:13.968Z,38.9
2018-05-31T01:41:04.779Z,38.9
2018-05-31T01:41:53.713Z,38.9
2018-05-31T01:42:44.353Z,38.9
2018-05-31T01:43:33.224Z,38.9
2018-05-31T01:44:25.200Z,38.9
2018-05-31T01:45:13.637Z,38.9
2018-05-31T01:46:04.286Z,38.9
2018-05-31T01:46:54.018Z,38.9
2018-05-31T01:47:47.349Z,38.9
2018-05-31T01:48:34.489Z,38.9
2018-05-31T01:49:24.860Z,38.8
2018-05-31T01:50:14.646Z,38.9
2018-05-31T01:51:07.418Z,38.8
2018-05-31T01:51:54.773Z,38.8
2018-05-31T01:52:44.799Z,38.8
2018-05-31T01:53:34.605Z,38.8
2018-05-31T01:54:26.986Z,38.8
2018-05-31T01:55:15.023Z,38.8
2018-05-31T01:56:05.063Z,38.8
2018-05-31T01:56:55.464Z,38.8
2018-05-31T01:57:46.738Z,38.8
2018-05-31T01:58:35.605Z,38.8
2018-05-31T01:59:25.291Z,38.8
2018-05-31T02:00:15.656Z,38.8
2018-05-31T02:01:05.747Z,38.8
2018-05-31T02:01:55.203Z,38.8
2018-05-31T02:02:45.937Z,38.8
2018-05-31T02:03:35.325Z,38.8
2018-05-31T02:04:26.008Z,38.7
2018-05-31T02:05:15.746Z,38.7
2018-05-31T02:06:05.805Z,38.7
2018-05-31T02:06:55.261Z,38.7
2018-05-31T02:07:45.355Z,38.7
2018-05-31T02:08:36.295Z,38.7
2018-05-31T02:09:25.759Z,38.7
2018-05-31T02:10:17.039Z,38.7
2018-05-31T02:11:06.494Z,38.6
2018-05-31T02:11:56.541Z,38.6
2018-05-31T02:12:46.014Z,38.6
2018-05-31T02:13:37.184Z,38.6
2018-05-31T02:14:26.418Z,38.6
2018-05-31T02:15:16.576Z,38.6
2018-05-31T02:16:06.272Z,38.6
2018-05-31T02:16:58.962Z,38.6
2018-05-31T02:17:46.712Z,38.6
2018-05-31T02:18:36.196Z,38.6
2018-05-31T02:19:25.667Z,38.6
2018-05-31T02:20:20.372Z,38.6
2018-05-31T02:21:07.016Z,38.6
2018-05-31T02:21:57.028Z,38.6
2018-05-31T02:22:47.385Z,38.6
2018-05-31T02:23:39.197Z,38.6
2018-05-31T02:24:26.495Z,38.5
2018-05-31T02:25:17.528Z,38.5
2018-05-31T02:26:07.630Z,38.5
2018-05-31T02:26:59.522Z,38.5
2018-05-31T02:27:47.479Z,38.5
2018-05-31T02:28:37.511Z,38.5
2018-05-31T02:29:27.927Z,38.4
2018-05-31T02:30:17.424Z,38.4
2018-05-31T02:31:07.875Z,38.4
2018-05-31T02:31:57.807Z,38.4
2018-05-31T02:32:48.098Z,38.4
2018-05-31T02:33:38.158Z,38.4
2018-05-31T02:34:27.394Z,38.4
2018-05-31T02:35:18.385Z,38.4
2018-05-31T02:36:07.568Z,38.4
2018-05-31T02:36:57.885Z,38.4
2018-05-31T02:37:48.243Z,38.4
2018-05-31T02:38:37.137Z,38.4
2018-05-31T02:39:29.452Z,38.4
2018-05-31T02:40:18.102Z,38.4
2018-05-31T02:41:08.508Z,38.4
2018-05-31T02:41:58.789Z,38.4
2018-05-31T02:42:50.761Z,38.4
2018-05-31T02:43:38.359Z,38.4
2018-05-31T02:44:28.738Z,38.4
2018-05-31T02:45:18.766Z,38.3
2018-05-31T02:46:11.436Z,38.3
2018-05-31T02:46:58.884Z,38.3
2018-05-31T02:47:49.327Z,38.3
2018-05-31T02:48:39.045Z,38.3
2018-05-31T02:49:31.549Z,38.3
2018-05-31T02:50:19.483Z,38.3
2018-05-31T02:51:08.949Z,38.3
2018-05-31T02:51:59.027Z,38.3
2018-05-31T02:52:52.135Z,38.3
2018-05-31T02:53:39.434Z,38.3
2018-05-31T02:54:28.647Z,38.3
2018-05-31T02:55:19.881Z,38.3
2018-05-31T02:56:10.210Z,38.3
2018-05-31T02:56:59.740Z,38.3
2018-05-31T02:57:50.014Z,38.3
2018-05-31T02:58:40.083Z,38.2
2018-05-31T02:59:29.326Z,38.2
2018-05-31T03:00:20.283Z,38.2
2018-05-31T03:01:09.998Z,38.2
2018-05-31T03:02:00.099Z,38.2
2018-05-31T03:02:50.101Z,38.2
2018-05-31T03:03:40.441Z,38.2
2018-05-31T03:04:30.431Z,38.2
2018-05-31T03:05:20.961Z,38.2
2018-05-31T03:06:10.380Z,38.1
2018-05-31T03:07:00.539Z,38.1
2018-05-31T03:07:50.547Z,38.1
2018-05-31T03:08:41.596Z,38.1
2018-05-31T03:09:30.376Z,38.1
2018-05-31T03:10:20.437Z,38.1
2018-05-31T03:11:11.091Z,38.1
2018-05-31T03:12:03.415Z,38.1
2018-05-31T03:12:51.189Z,38.1
2018-05-31T03:13:40.983Z,38.1
2018-05-31T03:14:29.870Z,38.1
2018-05-31T03:15:22.896Z,38.1
2018-05-31T03:16:11.459Z,38.1
2018-05-31T03:17:00.674Z,38.1
2018-05-31T03:17:51.664Z,38.1
2018-05-31T03:18:44.569Z,38.1
2018-05-31T03:19:31.171Z,38.1
2018-05-31T03:20:21.477Z,38.1
2018-05-31T03:21:11.272Z,38
2018-05-31T03:22:01.356Z,38.1
2018-05-31T03:22:51.655Z,38
2018-05-31T03:23:41.124Z,38
2018-05-31T03:24:31.812Z,38
2018-05-31T03:25:21.344Z,38
2018-05-31T03:26:11.914Z,38
2018-05-31T03:27:01.664Z,38
2018-05-31T03:27:51.742Z,38
2018-05-31T03:28:41.801Z,38
2018-05-31T03:29:32.150Z,38
2018-05-31T03:30:22.251Z,37.9
2018-05-31T03:31:13.555Z,38
2018-05-31T03:32:02.356Z,37.9
2018-05-31T03:32:52.146Z,37.9
2018-05-31T03:33:41.592Z,38
2018-05-31T03:34:34.740Z,38
2018-05-31T03:35:22.702Z,37.9
2018-05-31T03:36:12.077Z,37.9
2018-05-31T03:37:03.025Z,37.9
2018-05-31T03:37:55.553Z,37.9
2018-05-31T03:38:43.137Z,37.9
2018-05-31T03:39:32.334Z,37.9
2018-05-31T03:40:22.954Z,37.9
2018-05-31T03:41:15.744Z,37.9
2018-05-31T03:42:03.421Z,37.9
2018-05-31T03:42:52.912Z,37.8
2018-05-31T03:43:42.331Z,37.8
2018-05-31T03:44:32.443Z,37.8
2018-05-31T03:45:22.315Z,37.8
2018-05-31T03:46:13.439Z,37.8
2018-05-31T03:47:03.813Z,37.8
2018-05-31T03:47:53.296Z,37.8
2018-05-31T03:48:43.046Z,37.8
2018-05-31T03:49:32.825Z,37.8
2018-05-31T03:50:23.446Z,37.8
2018-05-31T03:51:13.805Z,37.8
2018-05-31T03:52:03.624Z,37.8
2018-05-31T03:52:54.176Z,37.8
2018-05-31T03:53:43.672Z,37.8
2018-05-31T03:54:34.064Z,37.7
2018-05-31T03:55:23.534Z,37.7
2018-05-31T03:56:13.632Z,37.7
2018-05-31T03:57:05.479Z,37.7
2018-05-31T03:57:54.045Z,37.7
2018-05-31T03:58:44.640Z,37.7
2018-05-31T03:59:33.854Z,37.7
2018-05-31T04:00:27.027Z,37.7
2018-05-31T04:01:14.865Z,37.6
2018-05-31T04:02:04.947Z,37.6
2018-05-31T04:02:54.958Z,37.6
2018-05-31T04:03:47.569Z,37.6
2018-05-31T04:04:35.192Z,37.6
2018-05-31T04:05:24.880Z,37.6
2018-05-31T04:06:15.219Z,37.6
2018-05-31T04:07:08.427Z,37.6
2018-05-31T04:07:54.800Z,37.6
2018-05-31T04:08:45.147Z,37.6
2018-05-31T04:09:35.516Z,37.6
2018-05-31T04:10:26.559Z,37.6
2018-05-31T04:11:15.342Z,37.6
2018-05-31T04:12:04.786Z,37.6
2018-05-31T04:12:55.490Z,37.6
2018-05-31T04:13:44.950Z,37.6
2018-05-31T04:14:35.304Z,37.6
2018-05-31T04:15:25.979Z,37.6
2018-05-31T04:16:15.753Z,37.6
2018-05-31T04:17:05.491Z,37.6
2018-05-31T04:17:55.255Z,37.6
2018-05-31T04:18:45.866Z,37.6
2018-05-31T04:19:36.340Z,37.5
2018-05-31T04:20:25.807Z,37.6
2018-05-31T04:21:16.077Z,37.5
2018-05-31T04:22:05.844Z,37.5
2018-05-31T04:22:57.584Z,37.5
2018-05-31T04:23:45.992Z,37.5
2018-05-31T04:24:36.646Z,37.5
2018-05-31T04:25:26.387Z,37.5
2018-05-31T04:26:19.001Z,37.5
2018-05-31T04:27:06.262Z,37.5
2018-05-31T04:27:56.334Z,37.5
2018-05-31T04:28:46.661Z,37.5
2018-05-31T04:29:39.745Z,37.5
2018-05-31T04:30:26.801Z,37.5
2018-05-31T04:31:16.856Z,37.5
2018-05-31T04:32:06.638Z,37.4
2018-05-31T04:32:59.571Z,37.5
2018-05-31T04:33:48.013Z,37.4
2018-05-31T04:34:37.177Z,37.4
2018-05-31T04:35:27.456Z,37.4
2018-05-31T04:36:17.192Z,37.4
2018-05-31T04:37:06.757Z,37.4
2018-05-31T04:37:57.336Z,37.4
2018-05-31T04:38:47.717Z,37.4
2018-05-31T04:39:37.447Z,37.4
2018-05-31T04:40:27.259Z,37.4
2018-05-31T04:41:17.615Z,37.4
2018-05-31T04:42:07.999Z,37.4
2018-05-31T04:42:57.994Z,37.4
2018-05-31T04:43:48.064Z,37.4
2018-05-31T04:44:37.856Z,37.4
2018-05-31T04:45:29.274Z,37.4
2018-05-31T04:46:18.279Z,37.4
2018-05-31T04:47:08.072Z,37.4
2018-05-31T04:47:58.407Z,37.4
2018-05-31T04:48:50.107Z,37.4
2018-05-31T04:49:38.545Z,37.4
2018-05-31T04:50:28.364Z,37.4
2018-05-31T04:51:18.067Z,37.4
2018-05-31T04:52:11.450Z,37.4
2018-05-31T04:52:58.841Z,37.4
2018-05-31T04:53:47.963Z,37.4
2018-05-31T04:54:38.335Z,37.3
2018-05-31T04:55:31.746Z,37.4
2018-05-31T04:56:18.795Z,37.4
2018-05-31T04:57:08.541Z,37.4
2018-05-31T04:57:58.936Z,37.3
2018-05-31T04:58:50.981Z,37.3
2018-05-31T04:59:38.203Z,37.3
2018-05-31T05:00:29.428Z,37.3
2018-05-31T05:01:19.128Z,37.3
2018-05-31T05:02:09.590Z,37.3
2018-05-31T05:02:59.050Z,37.3
2018-05-31T05:03:48.820Z,37.3
2018-05-31T05:04:38.618Z,37.3
2018-05-31T05:05:29.525Z,37.3
2018-05-31T05:06:19.506Z,37.3
2018-05-31T05:07:09.588Z,37.3
2018-05-31T05:08:00.246Z,37.3
2018-05-31T05:08:48.956Z,37.3
2018-05-31T05:09:39.299Z,37.3
2018-05-31T05:10:29.047Z,37.3
2018-05-31T05:11:20.876Z,37.3
2018-05-31T05:12:09.493Z,37.3
2018-05-31T05:12:59.573Z,37.3
2018-05-31T05:13:49.509Z,37.3
2018-05-31T05:14:42.391Z,37.3
2018-05-31T05:15:30.218Z,37.3
2018-05-31T05:16:20.305Z,37.2
2018-05-31T05:17:09.773Z,37.2
2018-05-31T05:18:03.948Z,37.3
2018-05-31T05:18:50.773Z,37.3
2018-05-31T05:19:40.247Z,37.2
2018-05-31T05:20:30.610Z,37.2
2018-05-31T05:21:23.333Z,37.1
2018-05-31T05:22:10.439Z,37.2
2018-05-31T05:23:00.231Z,37.2
2018-05-31T05:23:50.544Z,37.2
2018-05-31T05:24:40.157Z,37.2
2018-05-31T05:25:30.225Z,37.1
2018-05-31T05:26:20.269Z,36.6
2018-05-31T05:27:11.426Z,27.9
2018-05-31T05:28:01.173Z,31.8
2018-05-31T05:28:51.259Z,33.4
2018-05-31T05:29:41.609Z,31.6
2018-05-31T05:30:31.360Z,29.9
2018-05-31T05:31:21.459Z,29.3
2018-05-31T05:32:11.209Z,28.9
2018-05-31T05:33:01.566Z,28.7
2018-05-31T05:33:52.167Z,28.6
2018-05-31T05:34:41.673Z,28.7
2018-05-31T05:35:31.138Z,28.9
2018-05-31T05:36:21.833Z,29.2
2018-05-31T05:37:13.516Z,29.6
2018-05-31T05:38:02.205Z,30
2018-05-31T05:38:52.258Z,30.4
2018-05-31T05:39:42.338Z,30.8
2018-05-31T05:40:35.632Z,31.2
2018-05-31T05:41:22.170Z,29.7
2018-05-31T05:42:11.736Z,31.8
2018-05-31T05:43:02.385Z,35.3
2018-05-31T05:43:55.323Z,36.2
2018-05-31T05:44:42.803Z,35.5
2018-05-31T05:45:32.596Z,34.7
2018-05-31T05:46:21.960Z,34.4
2018-05-31T05:47:12.769Z,34.7
2018-05-31T05:48:02.407Z,35.2
2018-05-31T05:48:52.751Z,35.6
2018-05-31T05:49:42.813Z,35.8
2018-05-31T05:50:32.328Z,35.8
2018-05-31T05:51:22.655Z,35.9
2018-05-31T05:52:13.297Z,36
2018-05-31T05:53:03.438Z,36.2
2018-05-31T05:53:53.220Z,36.4
2018-05-31T05:54:43.474Z,36.6
2018-05-31T05:55:33.060Z,36.8
2018-05-31T05:56:25.223Z,36.9
2018-05-31T05:57:13.386Z,37
2018-05-31T05:58:03.754Z,37.2
2018-05-31T05:58:53.805Z,37.4
2018-05-31T05:59:46.011Z,37.6
2018-05-31T06:00:33.486Z,37.7
2018-05-31T06:01:23.975Z,37.9
2018-05-31T06:02:13.775Z,38.1
2018-05-31T06:03:07.390Z,38.2
2018-05-31T06:03:54.175Z,38.4
2018-05-31T06:04:44.258Z,38.5
2018-05-31T06:05:34.032Z,38.7
2018-05-31T06:06:25.560Z,38.8
2018-05-31T06:07:13.859Z,39
2018-05-31T06:08:04.464Z,39.1
2018-05-31T06:08:54.112Z,39.3
2018-05-31T06:09:44.352Z,39.4
2018-05-31T06:10:34.756Z,39.6
2018-05-31T06:11:24.798Z,39.8
2018-05-31T06:12:13.955Z,40
2018-05-31T06:13:04.930Z,40.1
2018-05-31T06:13:54.696Z,40.3
2018-05-31T06:14:45.020Z,40.4
2018-05-31T06:15:36.965Z,40.6
2018-05-31T06:16:24.859Z,40.8
2018-05-31T06:17:14.340Z,40.9
2018-05-31T06:18:04.989Z,41.1
2018-05-31T06:18:57.625Z,41.2
2018-05-31T06:19:45.937Z,41.4
2018-05-31T06:20:35.170Z,41.6
2018-05-31T06:21:24.667Z,41.7
2018-05-31T06:22:17.241Z,41.9
2018-05-31T06:23:05.738Z,42
2018-05-31T06:23:54.849Z,42.2
2018-05-31T06:24:45.479Z,42.3
2018-05-31T06:25:38.678Z,42.4
2018-05-31T06:26:27.056Z,42.6
2018-05-31T06:27:15.695Z,42.8
2018-05-31T06:28:05.744Z,43
2018-05-31T06:28:56.833Z,43.1
2018-05-31T06:29:45.049Z,43.3
2018-05-31T06:30:35.951Z,43.4
2018-05-31T06:31:26.349Z,43.6
2018-05-31T06:32:16.379Z,43.7
2018-05-31T06:33:06.464Z,43.9
2018-05-31T06:33:56.488Z,44
2018-05-31T06:34:46.151Z,44.2
2018-05-31T06:35:36.531Z,44.3
2018-05-31T06:36:26.328Z,44.5
2018-05-31T06:37:17.464Z,44.7
2018-05-31T06:38:06.728Z,44.8
2018-05-31T06:38:56.787Z,45
2018-05-31T06:39:46.587Z,45.1
2018-05-31T06:40:36.888Z,45.2
2018-05-31T06:41:26.703Z,45.3
2018-05-31T06:42:16.752Z,45.4
2018-05-31T06:43:06.968Z,45.5
2018-05-31T06:43:56.402Z,45.6
2018-05-31T06:44:46.700Z,45.7
2018-05-31T06:45:37.254Z,45.6
2018-05-31T06:46:26.783Z,45.6
2018-05-31T06:47:16.937Z,45.6
2018-05-31T06:48:07.265Z,45.8
2018-05-31T06:48:57.285Z,45.9
2018-05-31T06:49:47.125Z,46.1
2018-05-31T06:50:36.915Z,46.2
2018-05-31T06:51:26.592Z,46.3
2018-05-31T06:52:17.495Z,46.5
2018-05-31T06:53:07.579Z,46.6
2018-05-31T06:53:57.677Z,46.8
2018-05-31T06:54:47.417Z,47
2018-05-31T06:55:37.231Z,47.1
2018-05-31T06:56:27.866Z,47.3
2018-05-31T06:57:17.873Z,47.4
2018-05-31T06:58:07.459Z,47.6
2018-05-31T06:58:58.018Z,47.8
2018-05-31T06:59:48.055Z,48
2018-05-31T07:00:38.177Z,48.1
2018-05-31T07:01:27.906Z,48.3
2018-05-31T07:02:17.731Z,48.4
2018-05-31T07:03:08.618Z,48.3
2018-05-31T07:03:58.661Z,48.1
2018-05-31T07:04:47.896Z,48.1
2018-05-31T07:05:38.544Z,48.1
2018-05-31T07:06:28.336Z,48.1
2018-05-31T07:07:18.659Z,48.1
2018-05-31T07:08:08.704Z,48.1
2018-05-31T07:08:58.520Z,48.1
2018-05-31T07:09:48.825Z,48.1
2018-05-31T07:10:38.639Z,48.1
2018-05-31T07:11:28.501Z,48.1
2018-05-31T07:12:19.330Z,48
2018-05-31T07:13:09.390Z,47.8
2018-05-31T07:13:59.168Z,47.6
2018-05-31T07:14:49.483Z,47.5
2018-05-31T07:15:39.331Z,47.4
2018-05-31T07:16:29.086Z,47.3
2018-05-31T07:17:19.448Z,47.1
2018-05-31T07:18:09.749Z,46.8
2018-05-31T07:18:59.807Z,46.4
2018-05-31T07:19:49.607Z,46.3
2018-05-31T07:20:39.745Z,46.1
2018-05-31T07:21:29.277Z,46.1
2018-05-31T07:22:20.152Z,46.1
2018-05-31T07:23:09.839Z,46.2
2018-05-31T07:23:59.487Z,46.3
2018-05-31T07:24:49.752Z,46.4
2018-05-31T07:25:39.843Z,46.6
2018-05-31T07:26:30.128Z,46.7
2018-05-31T07:27:20.821Z,46.9
2018-05-31T07:28:10.263Z,47
2018-05-31T07:29:00.629Z,47.2
2018-05-31T07:29:49.842Z,47.4
2018-05-31T07:30:40.585Z,47.5
2018-05-31T07:31:29.802Z,47.8
2018-05-31T07:32:20.019Z,47.9
2018-05-31T07:33:09.806Z,48.1
2018-05-31T07:34:01.032Z,48.3
2018-05-31T07:34:50.782Z,48.5
2018-05-31T07:35:40.874Z,48.8
2018-05-31T07:36:30.946Z,48.9
2018-05-31T07:37:20.676Z,49.1
2018-05-31T07:38:10.470Z,49.3
2018-05-31T07:39:01.116Z,49.4
2018-05-31T07:39:50.900Z,49.6
2018-05-31T07:40:40.985Z,49.8
2018-05-31T07:41:31.304Z,49.9
2018-05-31T07:42:21.385Z,50.1
2018-05-31T07:43:11.117Z,50.3
2018-05-31T07:44:01.449Z,50.4
2018-05-31T07:44:51.798Z,50.6
2018-05-31T07:45:41.875Z,50.8
2018-05-31T07:46:30.834Z,50.9
2018-05-31T07:47:21.696Z,51.1
2018-05-31T07:48:12.108Z,51.3
2018-05-31T07:49:02.183Z,51.4
2018-05-31T07:49:51.652Z,51.5
2018-05-31T07:50:42.020Z,51.7
2018-05-31T07:51:32.338Z,51.8
2018-05-31T07:53:12.515Z,52.1
2018-05-31T07:54:02.043Z,52.2
2018-05-31T07:54:52.277Z,52.3
2018-05-31T07:55:42.071Z,52.4
2018-05-31T07:56:32.428Z,52.6
2018-05-31T07:57:22.789Z,52.7
2018-05-31T07:58:13.678Z,52.8
2018-05-31T07:59:02.323Z,52.9
2018-05-31T07:59:52.394Z,53.1
2018-05-31T08:00:42.274Z,53.3
2018-05-31T08:01:32.258Z,53.4
2018-05-31T08:02:22.935Z,53.5
2018-05-31T08:03:13.286Z,53.6
2018-05-31T08:04:03.017Z,53.8
2018-05-31T08:04:53.097Z,53.9
2018-05-31T08:05:43.133Z,54
2018-05-31T08:06:32.720Z,54.1
2018-05-31T08:07:23.543Z,54.3
2018-05-31T08:08:13.685Z,54.4
2018-05-31T08:09:03.151Z,54.6
2018-05-31T08:09:53.521Z,54.6
2018-05-31T08:10:43.073Z,54.8
2018-05-31T08:11:33.819Z,54.9
2018-05-31T08:12:22.745Z,55
2018-05-31T08:13:13.233Z,55.1
2018-05-31T08:14:04.096Z,55.2
2018-05-31T08:14:53.866Z,55.3
2018-05-31T08:15:43.661Z,55.4
2018-05-31T08:16:33.772Z,55.5
2018-05-31T08:17:24.119Z,55.6
2018-05-31T08:18:14.147Z,55.7
2018-05-31T08:19:03.923Z,55.8
2018-05-31T08:19:54.024Z,55.9
2018-05-31T08:20:44.363Z,56.1
2018-05-31T08:21:34.676Z,56.2
2018-05-31T08:22:24.430Z,56.3
2018-05-31T08:23:14.204Z,56.4
2018-05-31T08:24:04.278Z,56.5
2018-05-31T08:24:54.370Z,56.7
2018-05-31T08:25:44.143Z,56.8
2018-05-31T08:26:34.502Z,56.9
2018-05-31T08:27:24.525Z,57
2018-05-31T08:28:14.049Z,57.1
2018-05-31T08:29:04.990Z,57.2
2018-05-31T08:29:55.352Z,57.3
2018-05-31T08:30:45.367Z,57.4
2018-05-31T08:31:36.560Z,57.6
2018-05-31T08:32:25.223Z,57.6
2018-05-31T08:34:05.620Z,57.8
2018-05-31T08:34:55.759Z,57.9
2018-05-31T08:35:45.765Z,58.1
2018-05-31T08:36:35.825Z,58.2
2018-05-31T08:37:25.836Z,58.3
2018-05-31T08:38:14.800Z,58.4
2018-05-31T08:39:05.166Z,58.5
2018-05-31T08:39:56.062Z,58.6
2018-05-31T08:40:45.839Z,58.8
2018-05-31T08:41:35.638Z,58.9
2018-05-31T08:42:25.989Z,59
2018-05-31T08:43:16.081Z,59.1
2018-05-31T08:44:06.629Z,59.2
2018-05-31T08:44:56.160Z,59.3
2018-05-31T08:45:46.263Z,59.4
2018-05-31T08:46:36.281Z,59.6
2018-05-31T08:47:25.787Z,59.7
2018-05-31T08:48:16.510Z,59.8
2018-05-31T08:49:05.770Z,59.8
2018-05-31T08:49:56.851Z,59.9
2018-05-31T08:50:46.598Z,60
2018-05-31T08:51:36.415Z,60.1
2018-05-31T08:52:26.723Z,60.1
2018-05-31T08:53:16.244Z,60.3
2018-05-31T08:54:07.219Z,60.4
2018-05-31T08:54:56.932Z,60.5
2018-05-31T08:55:46.033Z,60.6
2018-05-31T08:56:37.075Z,60.7
2018-05-31T08:57:27.051Z,60.8
2018-05-31T08:58:17.173Z,60.9
2018-05-31T08:59:07.558Z,60.9
2018-05-31T08:59:57.082Z,61.1
2018-05-31T09:00:47.756Z,61.1
2018-05-31T09:01:37.427Z,61.2
2018-05-31T09:02:27.798Z,61.3
2018-05-31T09:03:17.312Z,61.4
2018-05-31T09:04:07.654Z,61.6
2018-05-31T09:04:57.022Z,61.7
2018-05-31T09:05:47.830Z,61.8
2018-05-31T09:06:36.692Z,61.9
2018-05-31T09:07:28.184Z,62
2018-05-31T09:08:18.271Z,62.1
2018-05-31T09:09:07.785Z,62.2
2018-05-31T09:09:57.868Z,62.3
2018-05-31T09:10:48.445Z,62.3
2018-05-31T09:11:38.528Z,62.4
2018-05-31T09:12:28.322Z,62.4
2018-05-31T09:13:17.778Z,62.6
2018-05-31T09:14:08.433Z,62.6
2018-05-31T09:14:58.826Z,62.7
2018-05-31T09:15:48.271Z,62.8
2018-05-31T09:16:38.889Z,62.9
2018-05-31T09:17:28.479Z,63
2018-05-31T09:18:18.484Z,63.1
2018-05-31T09:19:08.799Z,63.2
2018-05-31T09:19:58.321Z,63.3
2018-05-31T09:20:48.352Z,63.3
2018-05-31T09:21:39.264Z,63.4
2018-05-31T09:22:29.049Z,63.5
2018-05-31T09:23:19.130Z,63.6
2018-05-31T09:24:09.171Z,63.6
2018-05-31T09:24:59.260Z,63.7
2018-05-31T09:25:48.712Z,63.8
2018-05-31T09:26:39.117Z,63.8
2018-05-31T09:27:29.183Z,63.9
2018-05-31T09:28:19.532Z,63.9
2018-05-31T09:29:09.610Z,64.1
2018-05-31T09:29:59.364Z,64.1
2018-05-31T09:30:49.955Z,64.2
2018-05-31T09:31:40.042Z,64.3
2018-05-31T09:32:29.543Z,64.2
2018-05-31T09:33:20.207Z,64.2
2018-05-31T09:34:09.695Z,64.2
2018-05-31T09:35:00.045Z,64.3
2018-05-31T09:35:50.146Z,64.3
2018-05-31T09:36:40.204Z,64.3
2018-05-31T09:37:30.220Z,64.3
2018-05-31T09:38:20.263Z,64.3
2018-05-31T09:39:10.345Z,64.2
2018-05-31T09:40:00.672Z,64.3
2018-05-31T09:40:50.798Z,64.2
2018-05-31T09:41:40.216Z,64.2
2018-05-31T09:42:30.037Z,64.2
2018-05-31T09:43:20.381Z,64.2
2018-05-31T09:44:11.008Z,64.1
2018-05-31T09:45:01.128Z,64.1
2018-05-31T09:45:51.133Z,64.1
2018-05-31T09:46:41.609Z,64.1
2018-05-31T09:47:31.312Z,64.1
2018-05-31T09:48:21.083Z,64.1
2018-05-31T09:49:10.278Z,64.1
2018-05-31T09:50:01.463Z,64.2
2018-05-31T09:50:51.564Z,64.1
2018-05-31T09:51:41.630Z,64
2018-05-31T09:52:30.848Z,64
2018-05-31T09:53:21.201Z,64.1
2018-05-31T09:54:10.959Z,64.2
2018-05-31T09:55:01.935Z,64.3
2018-05-31T09:55:51.888Z,64.4
2018-05-31T09:56:41.441Z,64.6
2018-05-31T09:57:31.826Z,64.8
2018-05-31T09:58:22.039Z,65
2018-05-31T09:59:11.059Z,65.2
2018-05-31T10:00:01.697Z,65.2
2018-05-31T10:00:51.471Z,65.3
2018-05-31T10:01:41.862Z,65.4
2018-05-31T10:02:31.869Z,65.6
2018-05-31T10:03:22.215Z,65.6
2018-05-31T10:04:12.023Z,65.6
2018-05-31T10:05:01.799Z,65.6
2018-05-31T10:05:52.417Z,65.6
2018-05-31T10:06:42.754Z,65.8
2018-05-31T10:07:32.560Z,65.8
2018-05-31T10:08:22.873Z,65.9
2018-05-31T10:09:12.703Z,65.9
2018-05-31T10:10:02.458Z,66
2018-05-31T10:10:53.081Z,65.9
2018-05-31T10:11:43.177Z,65.8
2018-05-31T10:12:32.942Z,65.7
2018-05-31T10:13:23.275Z,65.7
2018-05-31T10:14:12.500Z,65.8
2018-05-31T10:15:02.920Z,65.8
2018-05-31T10:15:53.207Z,65.8
2018-05-31T10:16:43.287Z,65.8
2018-05-31T10:17:33.614Z,65.8
2018-05-31T10:18:23.343Z,66
2018-05-31T10:19:13.135Z,66.1
2018-05-31T10:20:03.503Z,66.2
2018-05-31T10:20:53.583Z,66.3
2018-05-31T10:21:43.621Z,66.5
2018-05-31T10:22:33.567Z,66.6
2018-05-31T10:23:24.031Z,66.7
2018-05-31T10:24:13.826Z,66.8
2018-05-31T10:25:03.592Z,66.9
2018-05-31T10:25:54.010Z,67
2018-05-31T10:26:44.286Z,67.1
2018-05-31T10:27:34.113Z,67.2
2018-05-31T10:28:24.136Z,67.3
2018-05-31T10:29:13.384Z,67.3
2018-05-31T10:30:04.319Z,67.4
2018-05-31T10:30:54.623Z,67.4
2018-05-31T10:31:44.107Z,67.5
2018-05-31T10:32:34.521Z,67.6
2018-05-31T10:33:24.530Z,67.6
2018-05-31T10:34:14.574Z,67.7
2018-05-31T10:35:04.635Z,67.7
2018-05-31T10:35:54.775Z,67.8
2018-05-31T10:36:45.093Z,67.8
2018-05-31T10:37:34.305Z,67.9
2018-05-31T10:38:24.434Z,67.9
2018-05-31T10:39:14.969Z,68
2018-05-31T10:40:05.115Z,68
2018-05-31T10:40:55.406Z,68.1
2018-05-31T10:41:45.229Z,68.1
2018-05-31T10:42:34.426Z,68.1
2018-05-31T10:43:25.321Z,68
2018-05-31T10:44:15.118Z,68.1
2018-05-31T10:45:05.766Z,68.1
2018-05-31T10:45:55.244Z,68.1
2018-05-31T10:46:45.588Z,68.2
2018-05-31T10:47:35.966Z,68.2
2018-05-31T10:48:25.418Z,68.3
2018-05-31T10:49:15.157Z,68.3
2018-05-31T10:50:06.173Z,68.3
2018-05-31T10:50:55.876Z,68.4
2018-05-31T10:51:46.223Z,68.4
2018-05-31T10:52:35.740Z,68.4
2018-05-31T10:53:25.510Z,68.4
2018-05-31T10:54:16.151Z,68.4
2018-05-31T10:55:06.503Z,68.4
2018-05-31T10:55:56.294Z,68.5
2018-05-31T10:56:46.082Z,68.5
2018-05-31T10:57:36.664Z,68.5
2018-05-31T10:58:25.906Z,68.6
2018-05-31T10:59:16.539Z,68.6
2018-05-31T11:00:06.617Z,68.7
2018-05-31T11:00:56.350Z,68.7
2018-05-31T11:01:46.408Z,68.8
2018-05-31T11:02:37.035Z,68.8
2018-05-31T11:03:26.285Z,68.9
2018-05-31T11:04:17.168Z,69
2018-05-31T11:05:07.260Z,69
2018-05-31T11:05:56.823Z,69.1
2018-05-31T11:06:46.813Z,69.1
2018-05-31T11:07:37.165Z,69.2
2018-05-31T11:08:27.225Z,69.2
2018-05-31T11:09:17.292Z,69.3
2018-05-31T11:10:07.678Z,69.3
2018-05-31T11:10:57.387Z,69.3